sensor_id;sensor_type;location;lat;lon;timestamp;pressure;altitude;pressure_sealevel;temperature;humidity
14383;BME280;7275;50.328;8.720;2024-01-27T00:00:55;101497.19;;;11.34;41.05
14383;BME280;7275;50.328;8.720;2024-01-27T00:03:22;101509.63;;;11.27;41.17
14383;BME280;7275;50.328;8.720;2024-01-27T00:05:50;101502.56;;;11.24;41.08
14383;BME280;7275;50.328;8.720;2024-01-27T00:08:20;101503.53;;;11.19;41.47
14383;BME280;7275;50.328;8.720;2024-01-27T00:10:48;101498.28;;;11.14;41.12
14383;BME280;7275;50.328;8.720;2024-01-27T00:13:15;101503.63;;;11.10;41.49
14383;BME280;7275;50.328;8.720;2024-01-27T00:15:43;101509.84;;;11.06;41.23
14383;BME280;7275;50.328;8.720;2024-01-27T00:18:11;101508.13;;;11.03;41.32
14383;BME280;7275;50.328;8.720;2024-01-27T00:20:38;101497.56;;;11.00;41.69
14383;BME280;7275;50.328;8.720;2024-01-27T00:23:06;101507.31;;;10.97;41.41
14383;BME280;7275;50.328;8.720;2024-01-27T00:25:35;101510.00;;;10.92;41.76
14383;BME280;7275;50.328;8.720;2024-01-27T00:28:03;101507.38;;;10.88;41.31
14383;BME280;7275;50.328;8.720;2024-01-27T00:30:31;101503.03;;;10.81;41.16
14383;BME280;7275;50.328;8.720;2024-01-27T00:32:59;101514.56;;;10.72;41.53
14383;BME280;7275;50.328;8.720;2024-01-27T00:35:26;101516.41;;;10.64;41.38
14383;BME280;7275;50.328;8.720;2024-01-27T00:37:54;101516.50;;;10.57;41.40
14383;BME280;7275;50.328;8.720;2024-01-27T00:40:21;101513.03;;;10.49;41.44
14383;BME280;7275;50.328;8.720;2024-01-27T00:42:51;101512.25;;;10.36;41.75
14383;BME280;7275;50.328;8.720;2024-01-27T00:45:19;101520.22;;;10.28;41.67
14383;BME280;7275;50.328;8.720;2024-01-27T00:47:49;101513.22;;;10.23;41.99
14383;BME280;7275;50.328;8.720;2024-01-27T00:50:16;101522.06;;;10.17;42.36
14383;BME280;7275;50.328;8.720;2024-01-27T00:52:44;101521.19;;;10.15;42.38
14383;BME280;7275;50.328;8.720;2024-01-27T00:55:12;101521.19;;;10.15;42.37
14383;BME280;7275;50.328;8.720;2024-01-27T00:57:39;101515.06;;;10.07;42.39
14383;BME280;7275;50.328;8.720;2024-01-27T01:00:10;101517.72;;;10.04;42.47
14383;BME280;7275;50.328;8.720;2024-01-27T01:02:38;101522.13;;;10.01;42.89
14383;BME280;7275;50.328;8.720;2024-01-27T01:05:07;101524.78;;;10.01;42.70
14383;BME280;7275;50.328;8.720;2024-01-27T01:07:35;101530.94;;;10.00;42.76
14383;BME280;7275;50.328;8.720;2024-01-27T01:10:03;101530.97;;;9.98;42.79
14383;BME280;7275;50.328;8.720;2024-01-27T01:12:31;101531.81;;;9.97;42.94
14383;BME280;7275;50.328;8.720;2024-01-27T01:14:59;101534.50;;;9.96;43.10
14383;BME280;7275;50.328;8.720;2024-01-27T01:17:28;101538.88;;;9.95;43.05
14383;BME280;7275;50.328;8.720;2024-01-27T01:19:55;101539.78;;;9.91;43.51
14383;BME280;7275;50.328;8.720;2024-01-27T01:22:23;101538.91;;;9.89;43.18
14383;BME280;7275;50.328;8.720;2024-01-27T01:24:51;101540.69;;;9.87;43.74
14383;BME280;7275;50.328;8.720;2024-01-27T01:27:18;101546.84;;;9.91;43.50
14383;BME280;7275;50.328;8.720;2024-01-27T01:29:47;101559.16;;;9.93;43.74
14383;BME280;7275;50.328;8.720;2024-01-27T01:32:15;101553.88;;;9.95;43.88
14383;BME280;7275;50.328;8.720;2024-01-27T01:34:45;101562.69;;;9.97;43.79
14383;BME280;7275;50.328;8.720;2024-01-27T01:37:13;101552.97;;;9.99;43.72
14383;BME280;7275;50.328;8.720;2024-01-27T01:39:41;101550.31;;;10.02;43.96
14383;BME280;7275;50.328;8.720;2024-01-27T01:42:08;101564.38;;;10.04;43.90
14383;BME280;7275;50.328;8.720;2024-01-27T01:44:36;101568.81;;;10.03;43.86
14383;BME280;7275;50.328;8.720;2024-01-27T01:47:04;101567.94;;;10.03;43.70
14383;BME280;7275;50.328;8.720;2024-01-27T01:49:32;101578.47;;;10.01;44.10
14383;BME280;7275;50.328;8.720;2024-01-27T01:52:01;101578.47;;;10.01;44.16
14383;BME280;7275;50.328;8.720;2024-01-27T01:54:29;101577.63;;;10.01;44.14
14383;BME280;7275;50.328;8.720;2024-01-27T01:56:58;101584.66;;;10.02;44.51
14383;BME280;7275;50.328;8.720;2024-01-27T01:59:26;101579.38;;;10.02;44.13
14383;BME280;7275;50.328;8.720;2024-01-27T02:01:54;101571.44;;;10.03;44.55
14383;BME280;7275;50.328;8.720;2024-01-27T02:04:21;101574.94;;;10.04;44.53
14383;BME280;7275;50.328;8.720;2024-01-27T02:06:49;101587.28;;;10.05;44.99
14383;BME280;7275;50.328;8.720;2024-01-27T02:09:18;101587.28;;;10.05;44.72
14383;BME280;7275;50.328;8.720;2024-01-27T02:11:45;101583.75;;;10.09;44.74
14383;BME280;7275;50.328;8.720;2024-01-27T02:14:13;101590.81;;;10.11;44.63
14383;BME280;7275;50.328;8.720;2024-01-27T02:16:41;101588.13;;;10.10;44.63
14383;BME280;7275;50.328;8.720;2024-01-27T02:19:08;101582.84;;;10.10;44.64
14383;BME280;7275;50.328;8.720;2024-01-27T02:21:36;101579.38;;;10.11;44.66
14383;BME280;7275;50.328;8.720;2024-01-27T02:24:07;101581.13;;;10.10;44.81
14383;BME280;7275;50.328;8.720;2024-01-27T02:26:36;101584.63;;;10.09;44.78
14383;BME280;7275;50.328;8.720;2024-01-27T02:29:03;101578.47;;;10.06;44.81
14383;BME280;7275;50.328;8.720;2024-01-27T02:31:31;101580.25;;;10.02;44.26
14383;BME280;7275;50.328;8.720;2024-01-27T02:33:58;101583.81;;;9.97;44.90
14383;BME280;7275;50.328;8.720;2024-01-27T02:36:26;101570.63;;;9.92;44.62
14383;BME280;7275;50.328;8.720;2024-01-27T02:38:54;101586.50;;;9.86;45.08
14383;BME280;7275;50.328;8.720;2024-01-27T02:41:25;101584.75;;;9.82;45.20
14383;BME280;7275;50.328;8.720;2024-01-27T02:43:53;101584.75;;;9.82;45.16
14383;BME280;7275;50.328;8.720;2024-01-27T02:46:20;101590.03;;;9.82;45.38
14383;BME280;7275;50.328;8.720;2024-01-27T02:48:48;101587.38;;;9.81;45.39
14383;BME280;7275;50.328;8.720;2024-01-27T02:51:19;101578.59;;;9.77;45.19
14383;BME280;7275;50.328;8.720;2024-01-27T02:53:46;101584.78;;;9.73;45.30
14383;BME280;7275;50.328;8.720;2024-01-27T02:56:15;101580.41;;;9.69;45.67
14383;BME280;7275;50.328;8.720;2024-01-27T02:58:44;101584.81;;;9.65;45.43
14383;BME280;7275;50.328;8.720;2024-01-27T03:01:12;101583.06;;;9.63;45.71
14383;BME280;7275;50.328;8.720;2024-01-27T03:03:40;101591.00;;;9.61;45.90
14383;BME280;7275;50.328;8.720;2024-01-27T03:06:07;101586.59;;;9.57;45.66
14383;BME280;7275;50.328;8.720;2024-01-27T03:08:35;101594.50;;;9.56;46.06
14383;BME280;7275;50.328;8.720;2024-01-27T03:11:03;101598.06;;;9.55;45.60
14383;BME280;7275;50.328;8.720;2024-01-27T03:13:30;101598.91;;;9.54;45.70
14383;BME280;7275;50.328;8.720;2024-01-27T03:15:59;101598.03;;;9.53;45.74
14383;BME280;7275;50.328;8.720;2024-01-27T03:18:27;101592.78;;;9.50;46.05
14383;BME280;7275;50.328;8.720;2024-01-27T03:20:55;101601.59;;;9.48;46.05
14383;BME280;7275;50.328;8.720;2024-01-27T03:23:22;101598.94;;;9.46;46.23
14383;BME280;7275;50.328;8.720;2024-01-27T03:25:50;101597.19;;;9.47;45.74
14383;BME280;7275;50.328;8.720;2024-01-27T03:28:17;101596.31;;;9.45;45.75
14383;BME280;7275;50.328;8.720;2024-01-27T03:30:45;101603.34;;;9.41;45.77
14383;BME280;7275;50.328;8.720;2024-01-27T03:33:14;101601.59;;;9.39;45.98
14383;BME280;7275;50.328;8.720;2024-01-27T03:35:41;101602.50;;;9.36;46.06
14383;BME280;7275;50.328;8.720;2024-01-27T03:38:09;101598.09;;;9.34;46.21
14383;BME280;7275;50.328;8.720;2024-01-27T03:40:37;101605.13;;;9.33;45.87
14383;BME280;7275;50.328;8.720;2024-01-27T03:43:04;101606.03;;;9.29;46.01
14383;BME280;7275;50.328;8.720;2024-01-27T03:45:32;101595.47;;;9.29;46.06
14383;BME280;7275;50.328;8.720;2024-01-27T03:47:59;101594.59;;;9.27;45.98
14383;BME280;7275;50.328;8.720;2024-01-27T03:50:28;101599.00;;;9.24;46.17
14383;BME280;7275;50.328;8.720;2024-01-27T03:52:56;101602.50;;;9.21;46.03
14383;BME280;7275;50.328;8.720;2024-01-27T03:55:23;101610.41;;;9.23;46.29
14383;BME280;7275;50.328;8.720;2024-01-27T03:57:51;101611.31;;;9.17;46.42
14383;BME280;7275;50.328;8.720;2024-01-27T04:00:19;101612.19;;;9.13;46.30
14383;BME280;7275;50.328;8.720;2024-01-27T04:02:47;101613.94;;;9.08;46.40
14383;BME280;7275;50.328;8.720;2024-01-27T04:05:15;101612.22;;;9.03;46.71
14383;BME280;7275;50.328;8.720;2024-01-27T04:07:43;101614.84;;;9.03;46.43
14383;BME280;7275;50.328;8.720;2024-01-27T04:10:11;101617.50;;;8.97;46.61
14383;BME280;7275;50.328;8.720;2024-01-27T04:12:39;101606.91;;;8.94;46.55
14383;BME280;7275;50.328;8.720;2024-01-27T04:15:07;101615.72;;;8.90;46.73
14383;BME280;7275;50.328;8.720;2024-01-27T04:17:35;101623.63;;;8.86;46.91
14383;BME280;7275;50.328;8.720;2024-01-27T04:20:03;101631.56;;;8.82;46.84
14383;BME280;7275;50.328;8.720;2024-01-27T04:22:31;101628.00;;;8.78;46.92
14383;BME280;7275;50.328;8.720;2024-01-27T04:24:59;101628.91;;;8.71;46.86
14383;BME280;7275;50.328;8.720;2024-01-27T04:27:27;101629.78;;;8.69;46.68
14383;BME280;7275;50.328;8.720;2024-01-27T04:29:55;101632.41;;;8.63;47.26
14383;BME280;7275;50.328;8.720;2024-01-27T04:32:23;101631.50;;;8.62;46.99
14383;BME280;7275;50.328;8.720;2024-01-27T04:34:51;101634.13;;;8.58;47.34
14383;BME280;7275;50.328;8.720;2024-01-27T04:37:19;101636.75;;;8.53;47.25
14383;BME280;7275;50.328;8.720;2024-01-27T04:39:46;101632.38;;;8.52;47.17
14383;BME280;7275;50.328;8.720;2024-01-27T04:42:15;101631.50;;;8.50;47.08
14383;BME280;7275;50.328;8.720;2024-01-27T04:44:44;101637.63;;;8.46;47.07
14383;BME280;7275;50.328;8.720;2024-01-27T04:47:11;101637.63;;;8.43;47.08
14383;BME280;7275;50.328;8.720;2024-01-27T04:49:39;101645.53;;;8.42;46.98
14383;BME280;7275;50.328;8.720;2024-01-27T04:52:07;101644.63;;;8.41;46.98
14383;BME280;7275;50.328;8.720;2024-01-27T04:54:35;101640.22;;;8.39;47.06
14383;BME280;7275;50.328;8.720;2024-01-27T04:57:03;101637.59;;;8.37;47.21
14383;BME280;7275;50.328;8.720;2024-01-27T04:59:33;101634.97;;;8.34;47.30
14383;BME280;7275;50.328;8.720;2024-01-27T05:02:00;101636.72;;;8.29;47.33
14383;BME280;7275;50.328;8.720;2024-01-27T05:04:28;101636.72;;;8.28;47.23
14383;BME280;7275;50.328;8.720;2024-01-27T05:06:55;101645.47;;;8.27;47.14
14383;BME280;7275;50.328;8.720;2024-01-27T05:09:23;101647.19;;;8.23;46.98
14383;BME280;7275;50.328;8.720;2024-01-27T05:11:50;101651.56;;;8.23;46.96
14383;BME280;7275;50.328;8.720;2024-01-27T05:14:19;101649.84;;;8.22;47.03
14383;BME280;7275;50.328;8.720;2024-01-27T05:16:49;101661.22;;;8.21;46.77
14383;BME280;7275;50.328;8.720;2024-01-27T05:19:16;101656.84;;;8.20;47.10
14383;BME280;7275;50.328;8.720;2024-01-27T05:21:44;101663.00;;;8.17;47.00
14383;BME280;7275;50.328;8.720;2024-01-27T05:24:12;101664.72;;;8.17;47.04
14383;BME280;7275;50.328;8.720;2024-01-27T05:26:40;101666.47;;;8.16;46.88
14383;BME280;7275;50.328;8.720;2024-01-27T05:29:08;101671.78;;;8.18;46.93
14383;BME280;7275;50.328;8.720;2024-01-27T05:31:35;101666.50;;;8.19;46.76
14383;BME280;7275;50.328;8.720;2024-01-27T05:34:04;101669.13;;;8.19;46.87
14383;BME280;7275;50.328;8.720;2024-01-27T05:36:32;101669.13;;;8.19;46.85
14383;BME280;7275;50.328;8.720;2024-01-27T05:38:59;101673.53;;;8.19;46.86
14383;BME280;7275;50.328;8.720;2024-01-27T05:41:29;101676.16;;;8.17;46.74
14383;BME280;7275;50.328;8.720;2024-01-27T05:43:57;101670.00;;;8.15;46.82
14383;BME280;7275;50.328;8.720;2024-01-27T05:46:25;101672.63;;;8.15;46.93
14383;BME280;7275;50.328;8.720;2024-01-27T05:48:52;101665.59;;;8.11;46.89
14383;BME280;7275;50.328;8.720;2024-01-27T05:51:25;101669.97;;;8.12;47.29
14383;BME280;7275;50.328;8.720;2024-01-27T05:53:53;101689.31;;;8.13;47.09
14383;BME280;7275;50.328;8.720;2024-01-27T05:56:21;101685.78;;;8.14;46.99
14383;BME280;7275;50.328;8.720;2024-01-27T05:58:49;101680.53;;;8.15;46.81
14383;BME280;7275;50.328;8.720;2024-01-27T06:01:17;101681.44;;;8.17;46.95
14383;BME280;7275;50.328;8.720;2024-01-27T06:03:45;101684.03;;;8.16;47.05
14383;BME280;7275;50.328;8.720;2024-01-27T06:06:13;101690.19;;;8.16;47.09
14383;BME280;7275;50.328;8.720;2024-01-27T06:08:42;101695.47;;;8.18;47.18
14383;BME280;7275;50.328;8.720;2024-01-27T06:11:09;101688.44;;;8.15;47.01
14383;BME280;7275;50.328;8.720;2024-01-27T06:13:37;101691.97;;;8.17;47.23
14383;BME280;7275;50.328;8.720;2024-01-27T06:16:07;101693.72;;;8.18;47.19
14383;BME280;7275;50.328;8.720;2024-01-27T06:18:36;101691.06;;;8.17;47.27
14383;BME280;7275;50.328;8.720;2024-01-27T06:21:05;101697.22;;;8.20;47.35
14383;BME280;7275;50.328;8.720;2024-01-27T06:23:33;101691.97;;;8.20;47.25
14383;BME280;7275;50.328;8.720;2024-01-27T06:26:05;101704.28;;;8.21;47.48
14383;BME280;7275;50.328;8.720;2024-01-27T06:28:33;101696.38;;;8.21;47.36
14383;BME280;7275;50.328;8.720;2024-01-27T06:31:01;101705.16;;;8.22;47.43
14383;BME280;7275;50.328;8.720;2024-01-27T06:33:28;101708.69;;;8.24;47.17
14383;BME280;7275;50.328;8.720;2024-01-27T06:35:56;101709.53;;;8.24;47.32
14383;BME280;7275;50.328;8.720;2024-01-27T06:38:25;101709.59;;;8.26;46.96
14383;BME280;7275;50.328;8.720;2024-01-27T06:40:53;101720.13;;;8.26;46.79
14383;BME280;7275;50.328;8.720;2024-01-27T06:43:22;101718.34;;;8.25;47.06
14383;BME280;7275;50.328;8.720;2024-01-27T06:45:50;101718.34;;;8.22;46.53
14383;BME280;7275;50.328;8.720;2024-01-27T06:48:17;101735.00;;;8.19;46.41
14383;BME280;7275;50.328;8.720;2024-01-27T06:50:45;101737.56;;;8.12;46.54
14383;BME280;7275;50.328;8.720;2024-01-27T06:53:13;101739.25;;;7.99;46.90
14383;BME280;7275;50.328;8.720;2024-01-27T06:55:40;101741.84;;;7.91;47.01
14383;BME280;7275;50.328;8.720;2024-01-27T06:58:09;101737.44;;;7.86;46.98
14383;BME280;7275;50.328;8.720;2024-01-27T07:00:38;101735.63;;;7.80;47.29
14383;BME280;7275;50.328;8.720;2024-01-27T07:03:07;101733.88;;;7.78;47.25
14383;BME280;7275;50.328;8.720;2024-01-27T07:05:39;101739.13;;;7.73;47.47
14383;BME280;7275;50.328;8.720;2024-01-27T07:08:07;101732.06;;;7.69;47.63
14383;BME280;7275;50.328;8.720;2024-01-27T07:10:35;101731.19;;;7.67;47.78
14383;BME280;7275;50.328;8.720;2024-01-27T07:13:03;101726.78;;;7.65;47.64
14383;BME280;7275;50.328;8.720;2024-01-27T07:15:32;101728.50;;;7.66;47.70
14383;BME280;7275;50.328;8.720;2024-01-27T07:18:01;101735.50;;;7.64;47.90
14383;BME280;7275;50.328;8.720;2024-01-27T07:20:29;101735.56;;;7.65;47.71
14383;BME280;7275;50.328;8.720;2024-01-27T07:22:56;101730.28;;;7.67;47.59
14383;BME280;7275;50.328;8.720;2024-01-27T07:25:24;101739.06;;;7.72;47.71
14383;BME280;7275;50.328;8.720;2024-01-27T07:27:51;101725.94;;;7.73;47.83
14383;BME280;7275;50.328;8.720;2024-01-27T07:30:19;101730.31;;;7.74;47.80
14383;BME280;7275;50.328;8.720;2024-01-27T07:32:46;101743.53;;;7.76;47.89
14383;BME280;7275;50.328;8.720;2024-01-27T07:35:16;101732.16;;;7.80;47.93
14383;BME280;7275;50.328;8.720;2024-01-27T07:37:43;101732.16;;;7.84;47.71
14383;BME280;7275;50.328;8.720;2024-01-27T07:40:14;101740.97;;;7.89;47.96
14383;BME280;7275;50.328;8.720;2024-01-27T07:42:45;101734.88;;;7.96;47.69
14383;BME280;7275;50.328;8.720;2024-01-27T07:45:15;101726.13;;;8.03;47.60
14383;BME280;7275;50.328;8.720;2024-01-27T07:47:43;101730.56;;;8.11;47.28
14383;BME280;7275;50.328;8.720;2024-01-27T07:50:14;101730.59;;;8.18;47.50
14383;BME280;7275;50.328;8.720;2024-01-27T07:52:44;101738.59;;;8.26;47.46
14383;BME280;7275;50.328;8.720;2024-01-27T07:55:15;101738.59;;;8.33;47.50
14383;BME280;7275;50.328;8.720;2024-01-27T07:57:43;101744.78;;;8.41;47.27
14383;BME280;7275;50.328;8.720;2024-01-27T08:00:12;101747.47;;;8.50;47.48
14383;BME280;7275;50.328;8.720;2024-01-27T08:02:43;101747.50;;;8.59;47.54
14383;BME280;7275;50.328;8.720;2024-01-27T08:05:13;101752.78;;;8.70;47.49
14383;BME280;7275;50.328;8.720;2024-01-27T08:07:44;101761.63;;;8.81;47.11
14383;BME280;7275;50.328;8.720;2024-01-27T08:10:12;101754.63;;;8.92;47.39
14383;BME280;7275;50.328;8.720;2024-01-27T08:12:40;101758.16;;;9.02;47.84
14383;BME280;7275;50.328;8.720;2024-01-27T08:15:07;101755.56;;;9.09;47.71
14383;BME280;7275;50.328;8.720;2024-01-27T08:17:35;101757.31;;;9.21;48.02
14383;BME280;7275;50.328;8.720;2024-01-27T08:20:03;101758.22;;;9.30;47.72
14383;BME280;7275;50.328;8.720;2024-01-27T08:22:31;101761.72;;;9.43;48.20
14383;BME280;7275;50.328;8.720;2024-01-27T08:25:00;101759.97;;;9.66;48.24
14383;BME280;7275;50.328;8.720;2024-01-27T08:27:28;101770.47;;;10.04;47.66
14383;BME280;7275;50.328;8.720;2024-01-27T08:29:55;101767.75;;;10.49;47.11
14383;BME280;7275;50.328;8.720;2024-01-27T08:32:24;101771.88;;;11.04;46.91
14383;BME280;7275;50.328;8.720;2024-01-27T08:34:51;101763.53;;;11.60;46.35
14383;BME280;7275;50.328;8.720;2024-01-27T08:37:20;101765.59;;;12.24;46.25
14383;BME280;7275;50.328;8.720;2024-01-27T08:39:48;101779.00;;;12.84;45.50
14383;BME280;7275;50.328;8.720;2024-01-27T08:42:18;101772.84;;;13.45;45.17
14383;BME280;7275;50.328;8.720;2024-01-27T08:44:46;101780.72;;;14.01;43.29
14383;BME280;7275;50.328;8.720;2024-01-27T08:47:13;101775.34;;;14.52;42.67
14383;BME280;7275;50.328;8.720;2024-01-27T08:49:41;101781.38;;;15.01;41.66
14383;BME280;7275;50.328;8.720;2024-01-27T08:52:09;101778.72;;;15.39;41.24
14383;BME280;7275;50.328;8.720;2024-01-27T08:54:37;101768.88;;;15.78;41.19
14383;BME280;7275;50.328;8.720;2024-01-27T08:57:05;101773.09;;;16.20;40.63
14383;BME280;7275;50.328;8.720;2024-01-27T08:59:33;101770.81;;;16.69;39.75
14383;BME280;7275;50.328;8.720;2024-01-27T09:02:02;101772.84;;;17.20;37.67
14383;BME280;7275;50.328;8.720;2024-01-27T09:04:30;101777.53;;;17.69;37.17
14383;BME280;7275;50.328;8.720;2024-01-27T09:06:57;101788.16;;;17.96;35.83
14383;BME280;7275;50.328;8.720;2024-01-27T09:09:25;101782.50;;;18.30;35.58
14383;BME280;7275;50.328;8.720;2024-01-27T09:11:55;101785.50;;;18.70;35.44
14383;BME280;7275;50.328;8.720;2024-01-27T09:14:23;101788.41;;;19.10;34.72
14383;BME280;7275;50.328;8.720;2024-01-27T09:16:52;101787.53;;;19.55;34.59
14383;BME280;7275;50.328;8.720;2024-01-27T09:19:20;101783.13;;;19.96;33.99
14383;BME280;7275;50.328;8.720;2024-01-27T09:21:47;101783.75;;;20.42;33.07
14383;BME280;7275;50.328;8.720;2024-01-27T09:24:15;101789.97;;;20.83;32.63
14383;BME280;7275;50.328;8.720;2024-01-27T09:26:43;101782.91;;;21.19;32.35
14383;BME280;7275;50.328;8.720;2024-01-27T09:29:10;101784.22;;;21.46;31.78
14383;BME280;7275;50.328;8.720;2024-01-27T09:31:38;101779.28;;;21.56;31.16
14383;BME280;7275;50.328;8.720;2024-01-27T09:34:08;101778.09;;;21.62;31.05
14383;BME280;7275;50.328;8.720;2024-01-27T09:36:35;101782.44;;;21.64;30.72
14383;BME280;7275;50.328;8.720;2024-01-27T09:39:03;101791.50;;;21.80;30.96
14383;BME280;7275;50.328;8.720;2024-01-27T09:41:31;101792.53;;;21.96;30.36
14383;BME280;7275;50.328;8.720;2024-01-27T09:44:01;101791.56;;;22.14;30.51
14383;BME280;7275;50.328;8.720;2024-01-27T09:46:30;101795.84;;;22.36;29.18
14383;BME280;7275;50.328;8.720;2024-01-27T09:48:58;101792.25;;;22.52;29.18
14383;BME280;7275;50.328;8.720;2024-01-27T09:51:28;101796.69;;;22.70;29.35
14383;BME280;7275;50.328;8.720;2024-01-27T09:53:56;101794.88;;;22.86;28.67
14383;BME280;7275;50.328;8.720;2024-01-27T09:56:24;101794.25;;;22.98;27.83
14383;BME280;7275;50.328;8.720;2024-01-27T09:58:53;101783.28;;;23.17;28.62
14383;BME280;7275;50.328;8.720;2024-01-27T10:01:24;101792.19;;;23.35;28.23
14383;BME280;7275;50.328;8.720;2024-01-27T10:03:52;101785.31;;;23.45;27.40
14383;BME280;7275;50.328;8.720;2024-01-27T10:06:24;101778.81;;;23.78;27.94
14383;BME280;7275;50.328;8.720;2024-01-27T10:08:55;101776.78;;;24.27;26.90
14383;BME280;7275;50.328;8.720;2024-01-27T10:11:23;101765.66;;;24.76;25.90
14383;BME280;7275;50.328;8.720;2024-01-27T10:13:55;101773.94;;;25.15;25.94
14383;BME280;7275;50.328;8.720;2024-01-27T10:16:26;101769.81;;;25.50;25.99
14383;BME280;7275;50.328;8.720;2024-01-27T10:19:02;101771.78;;;25.87;25.63
14383;BME280;7275;50.328;8.720;2024-01-27T10:21:30;101762.81;;;26.26;25.31
14383;BME280;7275;50.328;8.720;2024-01-27T10:23:59;101770.53;;;26.70;24.47
14383;BME280;7275;50.328;8.720;2024-01-27T10:26:30;101764.72;;;27.12;23.88
14383;BME280;7275;50.328;8.720;2024-01-27T10:29:02;101753.47;;;27.42;24.28
14383;BME280;7275;50.328;8.720;2024-01-27T10:31:30;101757.63;;;27.82;23.41
14383;BME280;7275;50.328;8.720;2024-01-27T10:34:01;101752.00;;;28.20;22.54
14383;BME280;7275;50.328;8.720;2024-01-27T10:36:43;101749.19;;;28.55;22.49
14383;BME280;7275;50.328;8.720;2024-01-27T10:39:18;101746.03;;;28.72;21.16
14383;BME280;7275;50.328;8.720;2024-01-27T10:41:47;101741.94;;;28.66;20.36
14383;BME280;7275;50.328;8.720;2024-01-27T10:44:16;101737.56;;;28.53;21.35
14383;BME280;7275;50.328;8.720;2024-01-27T10:46:44;101733.84;;;28.42;21.05
14383;BME280;7275;50.328;8.720;2024-01-27T10:49:15;101733.47;;;28.36;21.47
14383;BME280;7275;50.328;8.720;2024-01-27T10:51:46;101724.41;;;28.35;21.96
14383;BME280;7275;50.328;8.720;2024-01-27T10:54:24;101718.47;;;28.19;21.61
14383;BME280;7275;50.328;8.720;2024-01-27T10:56:58;101720.66;;;28.03;21.76
14383;BME280;7275;50.328;8.720;2024-01-27T10:59:34;101718.69;;;27.82;21.86
14383;BME280;7275;50.328;8.720;2024-01-27T11:02:03;101718.16;;;27.65;21.25
14383;BME280;7275;50.328;8.720;2024-01-27T11:04:32;101708.03;;;27.67;21.79
14383;BME280;7275;50.328;8.720;2024-01-27T11:07:02;101702.84;;;27.76;21.80
14383;BME280;7275;50.328;8.720;2024-01-27T11:09:34;101704.88;;;27.96;21.91
14383;BME280;7275;50.328;8.720;2024-01-27T11:12:03;101705.31;;;28.02;21.36
14383;BME280;7275;50.328;8.720;2024-01-27T11:14:31;101704.34;;;28.03;21.40
14383;BME280;7275;50.328;8.720;2024-01-27T11:16:59;101695.34;;;28.14;21.71
14383;BME280;7275;50.328;8.720;2024-01-27T11:19:27;101691.53;;;28.38;21.19
14383;BME280;7275;50.328;8.720;2024-01-27T11:22:01;101683.41;;;28.61;21.22
14383;BME280;7275;50.328;8.720;2024-01-27T11:24:29;101687.22;;;28.69;21.84
14383;BME280;7275;50.328;8.720;2024-01-27T11:27:02;101691.69;;;28.70;20.76
14383;BME280;7275;50.328;8.720;2024-01-27T11:29:30;101698.13;;;28.69;21.10
14383;BME280;7275;50.328;8.720;2024-01-27T11:32:00;101703.81;;;28.77;20.98
14383;BME280;7275;50.328;8.720;2024-01-27T11:34:41;101696.38;;;28.79;20.91
14383;BME280;7275;50.328;8.720;2024-01-27T11:37:13;101708.50;;;28.97;20.77
14383;BME280;7275;50.328;8.720;2024-01-27T11:39:41;101696.13;;;29.15;21.02
14383;BME280;7275;50.328;8.720;2024-01-27T11:42:11;101703.53;;;29.56;20.52
14383;BME280;7275;50.328;8.720;2024-01-27T11:44:40;101696.97;;;29.90;20.36
14383;BME280;7275;50.328;8.720;2024-01-27T11:47:14;101706.03;;;30.32;20.07
14383;BME280;7275;50.328;8.720;2024-01-27T11:49:42;101705.59;;;30.88;19.89
14383;BME280;7275;50.328;8.720;2024-01-27T11:52:11;101703.69;;;31.18;19.39
14383;BME280;7275;50.328;8.720;2024-01-27T11:54:39;101712.03;;;31.26;18.38
14383;BME280;7275;50.328;8.720;2024-01-27T11:57:06;101719.94;;;31.20;18.80
14383;BME280;7275;50.328;8.720;2024-01-27T11:59:35;101718.44;;;30.97;18.84
14383;BME280;7275;50.328;8.720;2024-01-27T12:02:03;101724.97;;;30.85;18.68
14383;BME280;7275;50.328;8.720;2024-01-27T12:04:31;101717.75;;;30.74;18.41
14383;BME280;7275;50.328;8.720;2024-01-27T12:06:58;101714.97;;;30.64;18.93
14383;BME280;7275;50.328;8.720;2024-01-27T12:09:26;101714.78;;;30.56;18.74
14383;BME280;7275;50.328;8.720;2024-01-27T12:11:54;101708.59;;;30.54;18.70
14383;BME280;7275;50.328;8.720;2024-01-27T12:14:22;101705.00;;;30.54;18.69
14383;BME280;7275;50.328;8.720;2024-01-27T12:16:51;101697.94;;;30.51;18.57
14383;BME280;7275;50.328;8.720;2024-01-27T12:19:19;101710.56;;;30.43;18.47
14383;BME280;7275;50.328;8.720;2024-01-27T12:21:47;101699.47;;;30.44;18.42
14383;BME280;7275;50.328;8.720;2024-01-27T12:24:16;101692.38;;;30.32;18.47
14383;BME280;7275;50.328;8.720;2024-01-27T12:26:48;101709.88;;;30.30;18.92
14383;BME280;7275;50.328;8.720;2024-01-27T12:29:15;101705.31;;;30.30;19.14
14383;BME280;7275;50.328;8.720;2024-01-27T12:31:44;101713.13;;;30.44;18.79
14383;BME280;7275;50.328;8.720;2024-01-27T12:34:13;101702.78;;;30.48;17.98
14383;BME280;7275;50.328;8.720;2024-01-27T12:36:42;101714.88;;;30.45;18.73
14383;BME280;7275;50.328;8.720;2024-01-27T12:39:10;101707.34;;;30.38;18.50
14383;BME280;7275;50.328;8.720;2024-01-27T12:41:38;101704.47;;;30.19;18.62
14383;BME280;7275;50.328;8.720;2024-01-27T12:44:06;101701.75;;;30.19;18.70
14383;BME280;7275;50.328;8.720;2024-01-27T12:46:33;101697.88;;;30.00;18.62
14383;BME280;7275;50.328;8.720;2024-01-27T12:49:01;101703.41;;;29.89;18.96
14383;BME280;7275;50.328;8.720;2024-01-27T12:51:31;101693.47;;;29.68;18.77
14383;BME280;7275;50.328;8.720;2024-01-27T12:53:59;101692.63;;;29.56;18.61
14383;BME280;7275;50.328;8.720;2024-01-27T12:56:26;101683.94;;;29.31;18.70
14383;BME280;7275;50.328;8.720;2024-01-27T12:58:54;101681.88;;;29.01;18.92
14383;BME280;7275;50.328;8.720;2024-01-27T13:01:22;101684.00;;;28.86;19.31
14383;BME280;7275;50.328;8.720;2024-01-27T13:03:50;101681.66;;;28.93;19.53
14383;BME280;7275;50.328;8.720;2024-01-27T13:06:18;101690.28;;;29.09;19.21
14383;BME280;7275;50.328;8.720;2024-01-27T13:08:48;101686.94;;;29.05;18.86
14383;BME280;7275;50.328;8.720;2024-01-27T13:11:17;101674.94;;;28.97;19.04